Time;durP1;ratioP1;P1;durP2;ratioP2;P2;SDS_P1;SDS_P2;PMS_P1;PMS_P2;Temp;Humidity;BMP_temperature;BMP_pressure;BME280_temperature;BME280_humidity;BME280_pressure;Samples;Min_cycle;Max_cycle;Signal;HPM_P1;HPM_P2
2022/08/02 00:01:56;;;;;;;8.30;2.40;;;17.10;76.80;;;;;;5019439;28;20598;-64
2022/08/02 00:04:23;;;;;;;8.93;2.15;;;17.10;76.70;;;;;;5005697;28;20050;-65
2022/08/02 00:06:50;;;;;;;7.70;2.55;;;17.10;76.50;;;;;;5019975;28;20052;-65
2022/08/02 00:09:17;;;;;;;8.68;2.10;;;17.10;76.20;;;;;;5007555;28;20459;-66
2022/08/02 00:11:43;;;;;;;7.57;2.28;;;17.00;76.60;;;;;;5024632;28;20057;-65
2022/08/02 00:14:09;;;;;;;6.53;2.25;;;17.10;76.80;;;;;;5025379;28;20041;-65
2022/08/02 00:16:36;;;;;;;7.38;2.13;;;17.00;77.20;;;;;;5024624;28;20429;-64
2022/08/02 00:19:03;;;;;;;10.23;2.50;;;16.90;77.40;;;;;;5027922;28;20046;-65
2022/08/02 00:21:30;;;;;;;6.90;2.20;;;16.80;77.50;;;;;;5009112;28;20099;-66
2022/08/02 00:23:56;;;;;;;8.35;3.13;;;16.70;77.90;;;;;;5028149;28;20082;-66
2022/08/02 00:26:23;;;;;;;7.93;2.58;;;16.70;78.00;;;;;;5010128;28;20087;-65
2022/08/02 00:28:50;;;;;;;11.32;2.40;;;16.70;78.40;;;;;;5023217;28;20053;-66
2022/08/02 00:31:17;;;;;;;6.38;2.47;;;16.70;78.50;;;;;;4988889;28;20660;-66
2022/08/02 00:33:44;;;;;;;7.53;2.83;;;16.70;77.90;;;;;;5016729;28;20041;-65
2022/08/02 00:36:11;;;;;;;6.63;2.83;;;16.60;78.70;;;;;;5007271;28;20045;-65
2022/08/02 00:38:38;;;;;;;7.75;2.75;;;16.60;79.00;;;;;;5035210;28;20041;-65
2022/08/02 00:41:16;;;;;;;5.75;2.40;;;16.50;79.30;;;;;;5007372;28;20100;-65
2022/08/02 00:43:43;;;;;;;8.27;3.20;;;16.40;79.80;;;;;;5023939;28;20057;-65
2022/08/02 00:46:11;;;;;;;8.55;2.80;;;16.40;79.20;;;;;;5024170;28;20482;-65
2022/08/02 00:48:38;;;;;;;11.90;2.92;;;16.30;79.50;;;;;;5008421;28;20061;-64
2022/08/02 00:51:05;;;;;;;7.55;2.78;;;16.30;79.40;;;;;;5024634;28;20125;-65
2022/08/02 00:53:32;;;;;;;10.05;2.50;;;16.40;79.00;;;;;;5020965;28;20070;-65
2022/08/02 00:55:59;;;;;;;11.40;3.30;;;16.40;78.80;;;;;;5030037;28;20467;-65
2022/08/02 00:58:27;;;;;;;10.87;2.70;;;16.30;79.00;;;;;;5011670;28;20084;-66
2022/08/02 01:00:56;;;;;;;8.60;2.70;;;16.30;79.10;;;;;;4988160;28;20149;-65
2022/08/02 01:03:23;;;;;;;8.90;3.10;;;16.30;79.50;;;;;;5005497;28;20059;-66
2022/08/02 01:05:50;;;;;;;7.22;2.90;;;16.10;79.80;;;;;;5022738;28;20475;-65
2022/08/02 01:08:18;;;;;;;12.02;3.30;;;16.20;79.70;;;;;;5025298;28;20061;-64
2022/08/02 01:10:44;;;;;;;9.75;3.13;;;16.10;80.20;;;;;;5003909;28;20139;-65
2022/08/02 01:13:11;;;;;;;12.15;3.55;;;16.10;79.60;;;;;;5023686;28;20042;-65
2022/08/02 01:15:42;;;;;;;8.75;2.35;;;16.20;79.50;;;;;;5022341;28;20235;-65
2022/08/02 01:18:27;;;;;;;6.25;2.60;;;16.10;79.90;;;;;;5022681;28;20053;-63
2022/08/02 01:21:35;;;;;;;12.73;3.40;;;16.10;79.60;;;;;;5019852;28;20058;-65
2022/08/02 01:24:19;;;;;;;10.88;3.40;;;16.10;79.80;;;;;;5009035;28;20054;-64
2022/08/02 01:27:19;;;;;;;8.45;3.22;;;16.10;79.90;;;;;;5018022;28;20520;-64
2022/08/02 01:29:46;;;;;;;7.40;3.00;;;16.10;79.40;;;;;;5021605;28;20045;-64
2022/08/02 01:32:15;;;;;;;12.52;3.33;;;16.10;79.90;;;;;;4991937;28;20057;-63
2022/08/02 01:35:00;;;;;;;7.00;2.75;;;16.00;79.50;;;;;;5022260;28;20046;-64
2022/08/02 01:37:49;;;;;;;8.38;3.05;;;16.10;79.60;;;;;;4990738;28;20111;-63
2022/08/02 01:40:21;;;;;;;7.60;2.90;;;16.10;80.10;;;;;;5041892;28;20056;-63
2022/08/02 01:42:51;;;;;;;11.07;3.00;;;16.00;80.50;;;;;;5025046;28;20111;-63
2022/08/02 01:45:18;;;;;;;6.80;2.55;;;16.10;80.70;;;;;;5017762;28;20072;-65
2022/08/02 01:47:46;;;;;;;6.88;2.80;;;16.00;80.80;;;;;;5028147;28;20068;-65
2022/08/02 01:50:22;;;;;;;7.90;2.70;;;16.00;81.20;;;;;;5023614;28;20084;-64
2022/08/02 01:52:51;;;;;;;7.13;2.90;;;15.90;81.00;;;;;;5029003;28;20107;-65
2022/08/02 01:55:42;;;;;;;8.38;3.20;;;15.80;81.00;;;;;;5018067;28;20418;-64
2022/08/02 01:58:12;;;;;;;6.30;3.00;;;15.80;81.30;;;;;;5001689;28;20125;-64
2022/08/02 02:00:40;;;;;;;10.05;3.50;;;15.70;83.00;;;;;;5008834;28;20049;-65
2022/08/02 02:03:09;;;;;;;5.57;2.50;;;15.60;82.70;;;;;;5010600;28;20084;-65
2022/08/02 02:05:37;;;;;;;14.10;2.97;;;15.60;82.90;;;;;;5026817;28;20422;-64
2022/08/02 02:08:04;;;;;;;6.60;3.05;;;15.70;82.60;;;;;;5027799;28;20058;-64
2022/08/02 02:10:32;;;;;;;9.60;3.43;;;15.70;82.50;;;;;;5026062;28;20678;-63
2022/08/02 02:13:02;;;;;;;8.02;2.97;;;15.60;82.40;;;;;;5027739;28;20045;-64
2022/08/02 02:15:30;;;;;;;9.70;2.88;;;15.70;82.30;;;;;;5007834;28;20052;-63
2022/08/02 02:17:57;;;;;;;7.65;3.25;;;15.70;82.30;;;;;;5024779;28;20045;-64
2022/08/02 02:20:24;;;;;;;9.05;2.67;;;15.60;82.70;;;;;;5001533;28;20056;-65
2022/08/02 02:22:52;;;;;;;5.63;2.53;;;15.60;82.80;;;;;;4998115;28;20051;-65
2022/08/02 02:25:19;;;;;;;9.15;3.10;;;15.70;82.70;;;;;;5009936;28;20063;-65
2022/08/02 02:27:58;;;;;;;8.35;2.80;;;15.60;82.60;;;;;;5010440;28;20639;-64
2022/08/02 02:30:26;;;;;;;6.65;2.50;;;15.60;82.60;;;;;;5006899;28;20073;-65
2022/08/02 02:32:54;;;;;;;8.45;3.15;;;15.60;82.40;;;;;;5024547;28;20088;-64
2022/08/02 02:35:21;;;;;;;5.72;2.42;;;15.60;83.00;;;;;;5017372;28;20052;-64
2022/08/02 02:37:49;;;;;;;5.57;2.80;;;15.60;82.90;;;;;;5024618;28;20052;-63
2022/08/02 02:40:17;;;;;;;6.53;2.90;;;15.50;82.40;;;;;;5020914;28;20483;-64
2022/08/02 02:42:44;;;;;;;5.53;2.53;;;15.50;83.20;;;;;;5024483;28;20129;-64
2022/08/02 02:45:10;;;;;;;7.63;2.88;;;15.40;83.30;;;;;;5007627;28;20061;-65
2022/08/02 02:47:37;;;;;;;6.05;2.80;;;15.50;83.80;;;;;;5021016;28;20049;-64
2022/08/02 02:50:04;;;;;;;5.40;2.80;;;15.40;84.00;;;;;;5007315;28;20080;-64
2022/08/02 02:52:31;;;;;;;5.55;2.80;;;15.40;83.60;;;;;;5021818;28;20042;-66
2022/08/02 02:54:58;;;;;;;7.10;2.50;;;15.40;83.30;;;;;;5023548;28;20119;-64
2022/08/02 02:57:25;;;;;;;12.07;3.10;;;15.30;83.50;;;;;;5027469;28;20042;-64
2022/08/02 02:59:53;;;;;;;8.15;3.00;;;15.20;84.10;;;;;;5010063;28;20128;-64
2022/08/02 03:02:20;;;;;;;10.32;2.88;;;15.00;84.90;;;;;;5008927;28;20057;-65
2022/08/02 03:04:47;;;;;;;7.55;2.33;;;15.00;85.10;;;;;;4988032;28;20046;-64
2022/08/02 03:07:14;;;;;;;5.20;2.50;;;15.10;84.70;;;;;;5007596;28;20050;-64
2022/08/02 03:09:41;;;;;;;9.40;2.63;;;15.20;84.00;;;;;;5011407;28;20386;-64
2022/08/02 03:12:08;;;;;;;5.63;2.60;;;15.20;84.30;;;;;;5011256;28;20050;-63
2022/08/02 03:14:42;;;;;;;7.65;2.67;;;15.20;83.90;;;;;;4997346;28;20046;-65
2022/08/02 03:17:09;;;;;;;8.82;2.53;;;15.20;84.10;;;;;;4995946;28;20345;-64
2022/08/02 03:19:36;;;;;;;7.13;2.78;;;15.10;84.30;;;;;;5026741;28;20104;-64
2022/08/02 03:22:03;;;;;;;8.05;2.58;;;15.10;84.50;;;;;;5011277;28;20554;-63
2022/08/02 03:24:31;;;;;;;5.72;2.65;;;15.10;84.20;;;;;;5028219;28;20050;-64
2022/08/02 03:26:57;;;;;;;8.37;2.93;;;15.00;85.00;;;;;;5000782;28;20054;-65
2022/08/02 03:29:24;;;;;;;7.93;2.80;;;14.80;84.90;;;;;;5006246;28;20042;-63
2022/08/02 03:31:52;;;;;;;6.95;2.85;;;14.90;84.90;;;;;;5010607;28;20482;-65
2022/08/02 03:34:19;;;;;;;7.65;2.92;;;14.90;84.70;;;;;;5011045;28;20768;-64
2022/08/02 03:36:47;;;;;;;7.82;2.70;;;14.80;85.20;;;;;;5013545;28;20703;-72
2022/08/02 03:39:14;;;;;;;7.03;2.70;;;14.90;84.70;;;;;;5027670;28;20089;-72
2022/08/02 03:41:41;;;;;;;8.30;2.67;;;15.00;84.90;;;;;;5010795;28;20807;-64
2022/08/02 03:44:08;;;;;;;6.18;2.67;;;15.00;84.20;;;;;;5024734;28;20095;-64
2022/08/02 03:46:38;;;;;;;7.47;2.50;;;14.90;84.10;;;;;;5036284;28;20115;-63
2022/08/02 03:49:07;;;;;;;9.32;3.17;;;14.70;84.70;;;;;;5004763;28;20042;-64
2022/08/02 03:51:34;;;;;;;8.32;2.70;;;14.80;84.80;;;;;;5008983;28;20061;-64
2022/08/02 03:54:01;;;;;;;8.23;2.97;;;14.80;84.50;;;;;;5024281;28;20124;-63
2022/08/02 03:56:29;;;;;;;4.88;2.30;;;14.80;84.50;;;;;;5028089;28;20667;-64
2022/08/02 03:59:12;;;;;;;7.05;2.65;;;14.90;84.20;;;;;;5029757;28;20046;-64
2022/08/02 04:01:39;;;;;;;5.15;2.83;;;14.90;84.00;;;;;;5024354;28;20092;-65
2022/08/02 04:04:07;;;;;;;5.93;3.08;;;14.80;84.30;;;;;;5026454;28;20046;-64
2022/08/02 04:06:33;;;;;;;8.55;2.42;;;14.80;84.60;;;;;;5029158;28;20042;-64
2022/08/02 04:09:01;;;;;;;10.25;2.90;;;14.80;84.50;;;;;;5009469;28;20046;-65
2022/08/02 04:11:32;;;;;;;9.38;2.60;;;14.80;84.20;;;;;;5009765;28;20149;-64
2022/08/02 04:14:00;;;;;;;9.73;3.10;;;14.90;84.30;;;;;;5005263;28;20080;-63
2022/08/02 04:16:47;;;;;;;7.22;2.42;;;14.90;84.10;;;;;;5023864;28;20073;-64
2022/08/02 04:19:43;;;;;;;6.78;2.95;;;14.80;84.20;;;;;;5032276;28;20053;-65
2022/08/02 04:22:15;;;;;;;6.22;2.58;;;14.80;84.60;;;;;;5008823;28;20046;-64
2022/08/02 04:24:44;;;;;;;6.65;2.70;;;14.80;84.70;;;;;;5011522;28;20050;-64
2022/08/02 04:27:12;;;;;;;8.18;2.40;;;14.80;84.60;;;;;;5027400;28;20065;-64
2022/08/02 04:29:39;;;;;;;9.98;2.80;;;14.80;84.40;;;;;;5020851;28;20050;-64
2022/08/02 04:32:06;;;;;;;6.97;2.70;;;14.80;84.90;;;;;;5028754;28;20057;-65
2022/08/02 04:34:33;;;;;;;5.93;2.38;;;14.80;84.80;;;;;;5010968;28;20045;-72
2022/08/02 04:37:00;;;;;;;6.40;2.85;;;14.90;84.70;;;;;;5011325;28;20038;-70
2022/08/02 04:39:27;;;;;;;8.35;3.08;;;14.90;84.50;;;;;;5016799;28;20104;-71
2022/08/02 04:41:54;;;;;;;12.23;4.32;;;14.90;84.60;;;;;;5022910;28;20041;-71
2022/08/02 04:44:21;;;;;;;4.90;2.38;;;14.90;84.70;;;;;;5024294;28;20046;-70
2022/08/02 04:46:48;;;;;;;7.50;2.58;;;14.90;84.80;;;;;;5010633;28;20051;-71
2022/08/02 04:49:15;;;;;;;9.10;3.10;;;15.00;84.60;;;;;;5026611;28;20049;-70
2022/08/02 04:51:42;;;;;;;10.75;3.25;;;15.00;84.50;;;;;;4995358;28;20128;-70
2022/08/02 04:54:09;;;;;;;11.77;4.05;;;15.00;84.50;;;;;;5023006;28;20045;-70
2022/08/02 04:56:37;;;;;;;6.78;3.25;;;14.90;84.90;;;;;;4994324;28;20041;-71
2022/08/02 04:59:04;;;;;;;8.40;3.20;;;14.90;85.10;;;;;;5026131;28;20048;-70
2022/08/02 05:01:31;;;;;;;11.93;3.70;;;15.00;85.10;;;;;;5034834;28;20378;-71
2022/08/02 05:03:59;;;;;;;7.00;3.42;;;14.90;86.00;;;;;;5039692;28;20049;-71
2022/08/02 05:06:26;;;;;;;7.40;3.17;;;14.80;86.00;;;;;;5011839;28;20045;-70
2022/08/02 05:08:53;;;;;;;6.32;3.22;;;14.90;85.90;;;;;;5003087;28;20127;-71
2022/08/02 05:11:19;;;;;;;9.10;3.97;;;15.00;86.00;;;;;;5020949;28;20056;-71
2022/08/02 05:13:46;;;;;;;7.45;3.00;;;15.00;86.10;;;;;;5018594;28;20046;-72
2022/08/02 05:16:13;;;;;;;8.90;3.10;;;15.00;86.30;;;;;;5026018;28;20092;-71
2022/08/02 05:18:40;;;;;;;7.32;3.55;;;15.10;86.00;;;;;;5008581;28;20061;-70
2022/08/02 05:21:08;;;;;;;12.25;3.70;;;15.10;86.00;;;;;;5020343;28;20075;-71
2022/08/02 05:23:35;;;;;;;8.23;3.00;;;15.10;86.50;;;;;;5017648;28;20081;-70
2022/08/02 05:26:01;;;;;;;14.68;3.40;;;15.20;86.40;;;;;;5023046;28;20530;-70
2022/08/02 05:28:28;;;;;;;6.88;2.65;;;15.30;86.20;;;;;;4983498;28;20049;-70
2022/08/02 05:30:55;;;;;;;7.25;2.97;;;15.30;85.60;;;;;;5019551;28;20049;-72
2022/08/02 05:33:23;;;;;;;9.27;2.97;;;15.30;85.30;;;;;;5027334;28;20073;-71
2022/08/02 05:35:48;;;;;;;8.52;3.20;;;15.40;85.00;;;;;;5022954;28;20046;-71
2022/08/02 05:38:14;;;;;;;6.72;2.90;;;15.50;84.70;;;;;;5001980;28;20115;-72
2022/08/02 05:40:40;;;;;;;8.27;2.50;;;15.60;84.40;;;;;;5023831;28;20110;-71
2022/08/02 05:43:12;;;;;;;11.02;3.22;;;15.60;84.00;;;;;;5023815;28;20423;-71
2022/08/02 05:45:38;;;;;;;8.10;2.45;;;15.60;83.70;;;;;;5016970;28;20161;-71
2022/08/02 05:48:04;;;;;;;6.05;2.83;;;15.60;83.50;;;;;;5028365;28;20152;-72
2022/08/02 05:50:30;;;;;;;8.98;2.95;;;15.60;83.30;;;;;;4992384;28;20652;-71
2022/08/02 05:53:03;;;;;;;8.40;2.90;;;15.70;83.30;;;;;;5011018;28;20052;-72
2022/08/02 05:55:41;;;;;;;7.85;2.60;;;15.70;83.10;;;;;;5002530;28;20060;-72
2022/08/02 05:58:33;;;;;;;9.15;3.47;;;15.70;83.30;;;;;;4993204;28;20038;-72
2022/08/02 06:00:59;;;;;;;6.82;2.97;;;15.60;83.30;;;;;;5007497;28;20502;-72
2022/08/02 06:03:26;;;;;;;7.90;2.75;;;15.70;83.20;;;;;;5025956;28;20049;-72
2022/08/02 06:06:11;;;;;;;10.48;3.05;;;15.70;83.10;;;;;;5027862;28;20053;-72
2022/08/02 06:08:41;;;;;;;10.88;3.38;;;15.80;83.00;;;;;;5022645;28;20045;-72
2022/08/02 06:11:08;;;;;;;7.45;3.17;;;15.80;82.80;;;;;;5009194;28;20042;-72
2022/08/02 06:13:33;;;;;;;6.68;2.70;;;15.90;82.80;;;;;;5025227;28;20107;-72
2022/08/02 06:15:59;;;;;;;8.85;3.20;;;15.90;82.70;;;;;;5021619;28;20049;-72
2022/08/02 06:18:28;;;;;;;10.27;3.30;;;16.00;82.20;;;;;;5021493;28;20049;-72
2022/08/02 06:20:56;;;;;;;9.02;2.83;;;16.10;82.20;;;;;;5023816;28;20051;-73
2022/08/02 06:23:22;;;;;;;7.30;2.40;;;16.20;82.20;;;;;;5027449;28;20111;-74
2022/08/02 06:25:47;;;;;;;12.05;3.05;;;16.10;82.10;;;;;;5024433;28;20065;-74
2022/08/02 06:28:13;;;;;;;10.60;3.00;;;16.20;82.20;;;;;;5006069;28;20049;-73
2022/08/02 06:30:39;;;;;;;13.73;2.90;;;16.20;82.60;;;;;;5023049;28;20135;-73
2022/08/02 06:33:05;;;;;;;9.73;2.75;;;16.30;82.40;;;;;;5021597;28;20053;-73
2022/08/02 06:35:44;;;;;;;6.47;2.88;;;16.30;82.50;;;;;;5003063;28;20045;-73
2022/08/02 06:38:20;;;;;;;7.53;2.95;;;16.40;82.30;;;;;;4990974;28;20041;-72
2022/08/02 06:41:07;;;;;;;12.23;2.80;;;16.40;82.50;;;;;;5010867;28;20498;-73
2022/08/02 06:43:51;;;;;;;7.72;3.08;;;16.50;82.50;;;;;;5026859;28;20081;-72
2022/08/02 06:46:16;;;;;;;8.18;2.63;;;16.50;82.10;;;;;;5022369;28;20057;-71
2022/08/02 06:48:42;;;;;;;9.52;2.90;;;16.60;81.60;;;;;;5017059;28;20046;-70
2022/08/02 06:51:08;;;;;;;5.75;2.60;;;16.70;81.30;;;;;;5016498;28;20606;-70
2022/08/02 06:53:34;;;;;;;8.25;2.38;;;16.70;81.10;;;;;;5025301;28;20042;-70
2022/08/02 06:55:59;;;;;;;7.07;2.70;;;16.70;80.40;;;;;;5010756;28;20057;-71
2022/08/02 06:58:25;;;;;;;9.48;2.40;;;16.80;80.40;;;;;;5008906;28;20054;-71
2022/08/02 07:00:51;;;;;;;11.15;3.30;;;16.90;80.50;;;;;;5025153;28;20054;-72
2022/08/02 07:03:17;;;;;;;8.90;2.88;;;17.00;80.30;;;;;;5024347;28;20050;-72
2022/08/02 07:05:47;;;;;;;9.18;2.40;;;17.00;79.60;;;;;;5022235;28;20096;-71
2022/08/02 07:08:16;;;;;;;8.10;2.45;;;17.10;79.40;;;;;;5026659;28;20103;-71
2022/08/02 07:10:41;;;;;;;6.72;2.65;;;17.10;79.50;;;;;;5027086;28;20053;-74
2022/08/02 07:13:07;;;;;;;12.77;3.00;;;17.20;79.10;;;;;;5022551;28;20102;-72
2022/08/02 07:15:33;;;;;;;11.18;2.80;;;17.30;79.00;;;;;;5017305;28;20184;-71
2022/08/02 07:17:59;;;;;;;10.00;2.28;;;17.40;78.60;;;;;;5026575;28;20049;-72
2022/08/02 07:20:24;;;;;;;12.10;2.22;;;17.50;78.60;;;;;;5010329;28;20045;-72
2022/08/02 07:22:50;;;;;;;13.60;2.80;;;17.60;79.10;;;;;;5001087;28;20046;-72
2022/08/02 07:25:16;;;;;;;10.40;3.10;;;17.70;79.10;;;;;;5027092;28;20065;-72
2022/08/02 07:27:42;;;;;;;10.02;2.53;;;17.70;78.30;;;;;;4992355;28;20048;-72
2022/08/02 07:30:08;;;;;;;10.57;2.58;;;17.70;78.10;;;;;;5023086;28;20092;-71
2022/08/02 07:32:34;;;;;;;13.07;2.78;;;17.80;77.90;;;;;;5024534;28;20041;-71
2022/08/02 07:35:00;;;;;;;10.30;2.63;;;17.80;77.70;;;;;;4993431;28;20046;-73
2022/08/02 07:37:28;;;;;;;8.57;2.80;;;17.90;77.40;;;;;;5010909;28;20076;-71
2022/08/02 07:39:54;;;;;;;13.90;3.35;;;17.90;77.40;;;;;;5007505;28;20535;-72
2022/08/02 07:42:19;;;;;;;10.15;2.72;;;18.00;77.20;;;;;;5021358;28;20049;-72
2022/08/02 07:44:45;;;;;;;11.73;3.15;;;18.00;77.20;;;;;;5035261;28;20056;-72
2022/08/02 07:47:11;;;;;;;8.57;2.63;;;18.10;77.00;;;;;;5005734;28;20142;-72
2022/08/02 07:49:37;;;;;;;9.68;2.70;;;18.10;77.50;;;;;;5022215;28;20057;-72
2022/08/02 07:52:03;;;;;;;8.70;2.78;;;18.20;77.90;;;;;;5042676;28;20471;-72
2022/08/02 07:54:32;;;;;;;8.20;2.58;;;18.20;78.00;;;;;;5020360;28;20041;-72
2022/08/02 07:56:58;;;;;;;11.75;2.65;;;18.30;77.80;;;;;;5028937;28;20052;-72
2022/08/02 07:59:23;;;;;;;9.10;2.58;;;18.40;78.10;;;;;;5028206;28;20057;-72
2022/08/02 08:01:50;;;;;;;10.45;3.13;;;18.50;78.70;;;;;;5019556;28;20377;-71
2022/08/02 08:04:16;;;;;;;13.52;3.00;;;18.60;77.40;;;;;;5009357;28;20538;-72
2022/08/02 08:06:42;;;;;;;12.60;3.10;;;18.60;77.40;;;;;;4995607;28;20057;-72
2022/08/02 08:09:09;;;;;;;10.35;3.50;;;18.70;77.70;;;;;;5030480;28;20080;-71
2022/08/02 08:11:37;;;;;;;13.20;3.05;;;18.80;77.40;;;;;;5030832;28;20049;-73
2022/08/02 08:14:03;;;;;;;14.05;3.22;;;18.80;77.90;;;;;;5042531;28;20775;-71
2022/08/02 08:16:29;;;;;;;13.15;3.20;;;18.90;77.00;;;;;;5003195;28;20196;-71
2022/08/02 08:18:55;;;;;;;9.57;2.83;;;18.90;76.70;;;;;;5039755;28;20123;-71
2022/08/02 08:21:21;;;;;;;7.15;2.53;;;19.00;77.30;;;;;;5029372;28;20132;-72
2022/08/02 08:23:50;;;;;;;8.70;2.83;;;19.20;76.70;;;;;;5009623;28;20132;-72
2022/08/02 08:26:15;;;;;;;9.38;3.22;;;19.30;76.70;;;;;;5019775;28;20699;-72
2022/08/02 08:28:41;;;;;;;9.40;3.38;;;19.30;76.30;;;;;;5021532;28;20517;-72
2022/08/02 08:31:07;;;;;;;8.52;2.75;;;19.40;75.80;;;;;;5025937;28;20176;-72
2022/08/02 08:33:33;;;;;;;16.30;3.67;;;19.60;75.10;;;;;;5009836;28;20047;-72
2022/08/02 08:35:59;;;;;;;8.13;3.38;;;19.70;73.30;;;;;;5025376;28;20049;-72
2022/08/02 08:38:24;;;;;;;8.48;2.75;;;19.70;74.30;;;;;;5029282;28;20052;-73
2022/08/02 08:40:50;;;;;;;9.23;2.72;;;19.70;73.50;;;;;;4995758;28;20087;-72
2022/08/02 08:43:16;;;;;;;7.35;2.75;;;19.80;74.20;;;;;;5025887;28;20045;-72
2022/08/02 08:45:46;;;;;;;7.05;2.80;;;19.90;73.00;;;;;;5041473;28;20049;-72
2022/08/02 08:48:14;;;;;;;8.70;2.58;;;19.90;72.60;;;;;;5009703;28;20075;-71
2022/08/02 08:50:46;;;;;;;8.35;2.53;;;20.00;73.00;;;;;;5008943;28;20045;-72
2022/08/02 08:53:12;;;;;;;8.85;2.70;;;20.00;72.20;;;;;;5029848;28;20479;-72
2022/08/02 08:55:37;;;;;;;10.98;3.53;;;20.10;72.40;;;;;;5023691;28;20092;-72
2022/08/02 08:58:04;;;;;;;7.38;2.80;;;20.20;68.30;;;;;;5026826;28;20050;-71
2022/08/02 09:00:31;;;;;;;8.75;2.90;;;20.20;68.20;;;;;;5016156;28;20053;-73
2022/08/02 09:02:57;;;;;;;7.45;2.85;;;20.30;68.80;;;;;;4999190;28;20046;-72
2022/08/02 09:05:23;;;;;;;8.00;2.80;;;20.40;69.00;;;;;;5026067;28;20050;-71
2022/08/02 09:07:49;;;;;;;8.85;3.03;;;20.40;69.40;;;;;;5026101;28;20407;-71
2022/08/02 09:10:30;;;;;;;8.48;2.83;;;20.50;69.20;;;;;;5023331;28;20374;-73
2022/08/02 09:13:09;;;;;;;8.25;2.80;;;20.70;68.20;;;;;;5028489;28;20049;-73
2022/08/02 09:15:38;;;;;;;8.02;3.20;;;20.70;65.40;;;;;;5025231;28;20051;-72
2022/08/02 09:18:04;;;;;;;7.18;3.22;;;20.70;65.20;;;;;;5025415;28;20069;-72
2022/08/02 09:20:35;;;;;;;7.15;3.00;;;20.80;65.90;;;;;;5023733;28;20478;-74
2022/08/02 09:23:08;;;;;;;8.13;2.92;;;20.80;65.90;;;;;;5022730;28;20077;-72
2022/08/02 09:25:34;;;;;;;6.05;2.78;;;20.90;65.20;;;;;;5026195;28;20042;-72
2022/08/02 09:28:01;;;;;;;7.88;2.83;;;21.00;64.70;;;;;;5027489;28;20041;-72
2022/08/02 09:30:26;;;;;;;4.80;2.50;;;21.10;66.10;;;;;;5026098;28;20132;-72
2022/08/02 09:32:52;;;;;;;7.40;2.47;;;21.20;65.80;;;;;;5021574;28;20046;-72
2022/08/02 09:35:35;;;;;;;9.23;2.53;;;21.20;65.20;;;;;;5044699;28;20073;-72
2022/08/02 09:38:11;;;;;;;7.75;2.35;;;21.20;65.50;;;;;;5008501;28;20077;-72
2022/08/02 09:40:38;;;;;;;8.63;3.10;;;21.10;66.40;;;;;;5027325;28;20049;-73
2022/08/02 09:43:04;;;;;;;7.57;2.70;;;21.10;64.40;;;;;;5009670;28;20133;-72
2022/08/02 09:45:33;;;;;;;5.60;2.45;;;21.20;64.80;;;;;;5022184;28;20045;-72
2022/08/02 09:48:00;;;;;;;8.43;2.70;;;21.30;64.00;;;;;;4992801;28;20410;-72
2022/08/02 09:50:26;;;;;;;10.10;2.93;;;21.40;62.50;;;;;;5026409;28;20084;-71
2022/08/02 09:52:55;;;;;;;6.35;2.75;;;21.50;63.30;;;;;;5044199;28;20491;-70
2022/08/02 09:55:21;;;;;;;5.93;2.90;;;21.60;62.50;;;;;;5007938;28;20050;-71
2022/08/02 09:57:47;;;;;;;8.23;2.65;;;21.70;63.30;;;;;;5008246;28;20119;-73
2022/08/02 10:00:13;;;;;;;7.38;2.95;;;21.80;62.90;;;;;;5024660;28;20129;-72
2022/08/02 10:02:38;;;;;;;9.82;2.60;;;21.80;62.70;;;;;;5027691;28;20053;-71
2022/08/02 10:05:05;;;;;;;6.50;2.55;;;21.80;63.10;;;;;;5024679;28;20061;-71
2022/08/02 10:07:31;;;;;;;4.97;2.50;;;21.90;63.40;;;;;;5026477;28;20041;-71
2022/08/02 10:09:56;;;;;;;6.05;2.40;;;22.00;62.10;;;;;;5021573;28;20331;-71
2022/08/02 10:12:22;;;;;;;6.13;2.50;;;22.00;61.70;;;;;;5027215;28;20379;-71
2022/08/02 10:14:51;;;;;;;6.53;2.75;;;22.20;60.90;;;;;;5043646;28;20518;-72
2022/08/02 10:17:18;;;;;;;4.88;2.60;;;22.30;60.00;;;;;;5024231;28;20052;-72
2022/08/02 10:19:44;;;;;;;8.68;3.40;;;22.40;59.30;;;;;;5023149;28;20052;-72
2022/08/02 10:22:11;;;;;;;8.40;3.30;;;22.50;59.60;;;;;;5026263;28;20387;-73
2022/08/02 10:24:38;;;;;;;8.73;2.67;;;22.50;58.40;;;;;;4991614;28;20092;-72
2022/08/02 10:27:05;;;;;;;5.53;2.42;;;22.50;58.40;;;;;;5021107;28;20490;-73
2022/08/02 10:29:37;;;;;;;4.07;2.10;;;22.60;57.90;;;;;;5023714;28;20552;-71
2022/08/02 10:32:31;;;;;;;4.70;2.10;;;22.70;59.00;;;;;;5021769;28;20052;-73
2022/08/02 10:35:05;;;;;;;4.97;2.20;;;22.90;57.30;;;;;;5011965;28;20045;-71
2022/08/02 10:37:32;;;;;;;3.67;2.13;;;23.00;56.80;;;;;;5025942;28;20049;-71
2022/08/02 10:39:58;;;;;;;5.38;2.33;;;23.10;57.50;;;;;;5032628;28;20391;-71
2022/08/02 10:42:43;;;;;;;6.38;2.20;;;23.30;56.40;;;;;;5032805;28;20054;-71
2022/08/02 10:45:10;;;;;;;8.02;2.60;;;23.20;54.10;;;;;;5019447;28;20057;-72
2022/08/02 10:47:36;;;;;;;7.30;2.85;;;23.40;54.00;;;;;;5026713;28;20053;-72
2022/08/02 10:50:02;;;;;;;7.10;2.40;;;23.40;53.40;;;;;;5032753;28;20049;-71
2022/08/02 10:52:31;;;;;;;4.80;2.28;;;23.40;54.40;;;;;;5027955;28;20054;-72
2022/08/02 10:55:08;;;;;;;4.88;2.13;;;23.40;55.30;;;;;;5012083;28;20044;-72
2022/08/02 10:57:35;;;;;;;5.78;2.65;;;23.50;55.50;;;;;;5015912;28;20504;-72
2022/08/02 11:00:11;;;;;;;3.78;2.00;;;23.80;55.00;;;;;;5022218;28;20045;-72
2022/08/02 11:02:45;;;;;;;7.13;2.92;;;23.80;53.80;;;;;;5007110;28;20049;-72
2022/08/02 11:05:26;;;;;;;4.75;2.20;;;23.80;53.80;;;;;;5032570;28;20042;-73
2022/08/02 11:07:52;;;;;;;6.05;2.40;;;23.90;53.30;;;;;;5030775;28;20083;-73
2022/08/02 11:10:37;;;;;;;5.05;2.53;;;23.90;50.80;;;;;;5029789;28;20637;-73
2022/08/02 11:13:14;;;;;;;5.55;2.13;;;23.90;49.90;;;;;;5032318;28;20072;-72
2022/08/02 11:15:47;;;;;;;5.22;2.10;;;24.00;51.20;;;;;;5034594;28;20116;-72
2022/08/02 11:18:13;;;;;;;3.78;2.08;;;24.20;52.20;;;;;;5030574;28;20077;-72
2022/08/02 11:20:39;;;;;;;3.80;2.22;;;24.30;51.90;;;;;;5053578;28;20467;-71
2022/08/02 11:23:37;;;;;;;3.72;2.22;;;24.30;51.60;;;;;;5038175;28;20104;-71
2022/08/02 11:26:28;;;;;;;4.07;2.22;;;24.40;50.20;;;;;;5036169;28;20065;-72
2022/08/02 11:28:54;;;;;;;3.53;2.10;;;24.30;50.90;;;;;;5028713;28;20054;-71
2022/08/02 11:31:20;;;;;;;5.28;2.20;;;24.40;51.20;;;;;;4990844;28;20050;-72
2022/08/02 11:33:47;;;;;;;3.25;2.08;;;24.50;51.70;;;;;;5032198;28;20789;-72
2022/08/02 11:36:13;;;;;;;3.45;1.98;;;24.70;52.20;;;;;;5041005;28;20484;-72
2022/08/02 11:38:39;;;;;;;2.70;2.10;;;24.60;50.20;;;;;;5033336;28;20053;-72
2022/08/02 11:41:04;;;;;;;3.95;1.92;;;24.70;49.10;;;;;;5022240;28;20186;-72
2022/08/02 11:43:30;;;;;;;4.22;2.10;;;24.60;49.00;;;;;;5035266;28;20655;-72
2022/08/02 11:45:56;;;;;;;5.40;2.13;;;24.80;49.10;;;;;;5036906;28;20054;-72
2022/08/02 11:48:33;;;;;;;3.50;1.73;;;24.80;49.50;;;;;;5018561;28;20056;-72
2022/08/02 11:51:06;;;;;;;4.32;2.30;;;24.90;48.00;;;;;;5028382;28;20046;-73
2022/08/02 11:53:51;;;;;;;7.05;2.17;;;24.90;49.10;;;;;;5035133;28;20073;-72
2022/08/02 11:56:24;;;;;;;4.28;1.75;;;25.00;49.10;;;;;;5040058;28;20505;-72
2022/08/02 11:59:03;;;;;;;5.03;2.15;;;25.00;48.80;;;;;;5039048;28;20099;-72
2022/08/02 12:01:32;;;;;;;6.38;1.80;;;25.00;48.10;;;;;;5002360;28;20041;-72
2022/08/02 12:03:59;;;;;;;2.90;1.95;;;25.00;47.10;;;;;;5039006;28;20055;-71
2022/08/02 12:06:27;;;;;;;3.35;1.85;;;25.00;47.20;;;;;;5009383;28;20049;-73
2022/08/02 12:09:07;;;;;;;4.57;1.90;;;25.00;47.10;;;;;;5033354;28;20468;-73
2022/08/02 12:11:33;;;;;;;4.63;1.75;;;25.10;49.50;;;;;;5032165;28;20733;-71
2022/08/02 12:13:59;;;;;;;5.47;1.92;;;25.00;48.50;;;;;;5028384;28;20041;-72
2022/08/02 12:19:18;;;;;;;3.00;2.08;;;25.20;48.60;;;;;;5029266;28;20049;-72
2022/08/02 12:21:45;;;;;;;4.40;2.03;;;25.30;47.50;;;;;;5027369;28;20127;-72
2022/08/02 12:24:11;;;;;;;5.43;1.60;;;25.20;47.10;;;;;;5035846;28;20072;-72
2022/08/02 12:26:46;;;;;;;4.72;1.70;;;25.20;47.20;;;;;;5016958;28;20087;-73
2022/08/02 12:29:12;;;;;;;3.55;1.70;;;25.20;47.20;;;;;;5031926;28;20127;-73
2022/08/02 12:31:40;;;;;;;5.97;1.92;;;25.30;46.80;;;;;;5007604;28;20424;-72
2022/08/02 12:34:17;;;;;;;2.75;2.00;;;25.40;47.20;;;;;;5037175;28;20571;-72
2022/08/02 12:37:08;;;;;;;2.58;1.90;;;25.50;46.90;;;;;;4992363;28;20053;-72
2022/08/02 12:39:42;;;;;;;3.13;1.90;;;25.80;47.40;;;;;;5034242;28;20052;-73
2022/08/02 12:42:09;;;;;;;3.70;1.90;;;25.80;47.60;;;;;;5031543;28;20226;-72
2022/08/02 12:44:37;;;;;;;3.50;1.88;;;25.80;47.20;;;;;;5025230;28;20049;-72
2022/08/02 12:47:05;;;;;;;3.58;1.90;;;25.70;47.40;;;;;;5039105;28;20068;-73
2022/08/02 12:49:31;;;;;;;3.83;1.73;;;25.70;46.80;;;;;;5035044;28;20394;-73
2022/08/02 12:51:57;;;;;;;3.88;1.77;;;25.80;47.80;;;;;;5025098;28;20412;-73
2022/08/02 12:54:25;;;;;;;3.00;1.88;;;25.90;47.00;;;;;;5024306;28;21429;-74
2022/08/02 12:56:50;;;;;;;3.47;1.83;;;25.90;46.70;;;;;;5034691;28;20048;-73
2022/08/02 12:59:16;;;;;;;3.75;1.85;;;26.10;46.40;;;;;;5039833;28;20052;-72